sensor_id;sensor_type;location;lat;lon;timestamp;pressure;altitude;pressure_sealevel;temperature;humidity
79752;BME280;69234;47.446;21.636;2023-07-28T00:00:09;100292.34;;;14.67;76.09
79752;BME280;69234;47.446;21.636;2023-07-28T00:00:45;100286.63;;;14.70;77.10
79752;BME280;69234;47.446;21.636;2023-07-28T00:01:16;100293.03;;;14.69;77.68
79752;BME280;69234;47.446;21.636;2023-07-28T00:01:47;100300.66;;;14.73;77.43
79752;BME280;69234;47.446;21.636;2023-07-28T00:02:18;100296.94;;;14.74;77.87
79752;BME280;69234;47.446;21.636;2023-07-28T00:02:49;100294.56;;;14.71;77.86
79752;BME280;69234;47.446;21.636;2023-07-28T00:03:20;100295.88;;;14.67;77.60
79752;BME280;69234;47.446;21.636;2023-07-28T00:03:51;100300.28;;;14.68;76.94
79752;BME280;69234;47.446;21.636;2023-07-28T00:04:21;100300.13;;;14.70;76.93
79752;BME280;69234;47.446;21.636;2023-07-28T00:04:52;100300.97;;;14.70;78.30
79752;BME280;69234;47.446;21.636;2023-07-28T00:05:23;100293.19;;;14.67;78.18
79752;BME280;69234;47.446;21.636;2023-07-28T00:05:54;100303.84;;;14.69;76.85
79752;BME280;69234;47.446;21.636;2023-07-28T00:06:25;100295.75;;;14.69;77.30
79752;BME280;69234;47.446;21.636;2023-07-28T00:06:56;100301.16;;;14.69;77.50
79752;BME280;69234;47.446;21.636;2023-07-28T00:07:27;100301.28;;;14.67;76.58
79752;BME280;69234;47.446;21.636;2023-07-28T00:07:58;100296.06;;;14.66;76.11
79752;BME280;69234;47.446;21.636;2023-07-28T00:08:29;100298.06;;;14.64;77.17
79752;BME280;69234;47.446;21.636;2023-07-28T00:09:00;100296.38;;;14.63;76.06
79752;BME280;69234;47.446;21.636;2023-07-28T00:09:31;100300.09;;;14.62;76.29
79752;BME280;69234;47.446;21.636;2023-07-28T00:10:02;100303.78;;;14.61;77.35
79752;BME280;69234;47.446;21.636;2023-07-28T00:10:33;100297.72;;;14.59;77.55
79752;BME280;69234;47.446;21.636;2023-07-28T00:11:13;100303.44;;;14.56;78.19
79752;BME280;69234;47.446;21.636;2023-07-28T00:11:44;100300.72;;;14.56;76.88
79752;BME280;69234;47.446;21.636;2023-07-28T00:12:15;100304.41;;;14.55;78.08
79752;BME280;69234;47.446;21.636;2023-07-28T00:12:45;100303.44;;;14.56;77.02
79752;BME280;69234;47.446;21.636;2023-07-28T00:13:16;100300.72;;;14.56;77.24
79752;BME280;69234;47.446;21.636;2023-07-28T00:13:47;100304.09;;;14.58;77.50
79752;BME280;69234;47.446;21.636;2023-07-28T00:14:18;100296.47;;;14.53;78.93
79752;BME280;69234;47.446;21.636;2023-07-28T00:14:49;100299.19;;;14.53;77.21
79752;BME280;69234;47.446;21.636;2023-07-28T00:15:20;100305.81;;;14.59;77.23
79752;BME280;69234;47.446;21.636;2023-07-28T00:15:51;100309.50;;;14.58;78.54
79752;BME280;69234;47.446;21.636;2023-07-28T00:16:22;100305.81;;;14.59;78.66
79752;BME280;69234;47.446;21.636;2023-07-28T00:16:55;100306.13;;;14.56;77.62
79752;BME280;69234;47.446;21.636;2023-07-28T00:17:26;100303.56;;;14.54;77.73
79752;BME280;69234;47.446;21.636;2023-07-28T00:17:57;100304.41;;;14.55;77.53
79752;BME280;69234;47.446;21.636;2023-07-28T00:18:30;100304.59;;;14.53;76.79
79752;BME280;69234;47.446;21.636;2023-07-28T00:19:01;100303.75;;;14.53;78.09
79752;BME280;69234;47.446;21.636;2023-07-28T00:19:32;100301.03;;;14.53;76.74
79752;BME280;69234;47.446;21.636;2023-07-28T00:20:03;100302.91;;;14.52;78.23
79752;BME280;69234;47.446;21.636;2023-07-28T00:20:34;100305.44;;;14.54;78.06
79752;BME280;69234;47.446;21.636;2023-07-28T00:21:05;100300.03;;;14.54;78.31
79752;BME280;69234;47.446;21.636;2023-07-28T00:21:37;100301.03;;;14.53;77.95
79752;BME280;69234;47.446;21.636;2023-07-28T00:22:08;100301.88;;;14.53;77.75
79752;BME280;69234;47.446;21.636;2023-07-28T00:22:39;100292.22;;;14.50;77.97
79752;BME280;69234;47.446;21.636;2023-07-28T00:23:10;100298.34;;;14.53;76.82
79752;BME280;69234;47.446;21.636;2023-07-28T00:23:41;100296.66;;;14.52;77.38
79752;BME280;69234;47.446;21.636;2023-07-28T00:24:12;100297.63;;;14.50;76.51
79752;BME280;69234;47.446;21.636;2023-07-28T00:24:43;100297.63;;;14.50;77.85
79752;BME280;69234;47.446;21.636;2023-07-28T00:25:13;100304.75;;;14.52;77.39
79752;BME280;69234;47.446;21.636;2023-07-28T00:25:44;100298.16;;;14.54;78.28
79752;BME280;69234;47.446;21.636;2023-07-28T00:26:15;100300.88;;;14.54;77.62
79752;BME280;69234;47.446;21.636;2023-07-28T00:26:46;100301.03;;;14.53;77.43
79752;BME280;69234;47.446;21.636;2023-07-28T00:27:17;100304.75;;;14.52;77.30
79752;BME280;69234;47.446;21.636;2023-07-28T00:27:49;100301.50;;;14.48;78.83
79752;BME280;69234;47.446;21.636;2023-07-28T00:28:20;100310.44;;;14.48;77.29
79752;BME280;69234;47.446;21.636;2023-07-28T00:28:51;100298.25;;;14.44;77.73
79752;BME280;69234;47.446;21.636;2023-07-28T00:29:22;100297.56;;;14.42;78.29
79752;BME280;69234;47.446;21.636;2023-07-28T00:29:53;100304.50;;;14.45;78.45
79752;BME280;69234;47.446;21.636;2023-07-28T00:30:24;100307.34;;;14.43;78.10
79752;BME280;69234;47.446;21.636;2023-07-28T00:30:56;100296.53;;;14.43;78.94
79752;BME280;69234;47.446;21.636;2023-07-28T00:31:27;100300.06;;;14.44;78.91
79752;BME280;69234;47.446;21.636;2023-07-28T00:31:58;100301.94;;;14.43;79.06
79752;BME280;69234;47.446;21.636;2023-07-28T00:32:28;100299.41;;;14.42;77.75
79752;BME280;69234;47.446;21.636;2023-07-28T00:32:59;100302.25;;;14.40;78.46
79752;BME280;69234;47.446;21.636;2023-07-28T00:33:30;100296.00;;;14.40;78.14
79752;BME280;69234;47.446;21.636;2023-07-28T00:34:03;100297.88;;;14.39;78.57
79752;BME280;69234;47.446;21.636;2023-07-28T00:34:34;100296.00;;;14.40;78.65
79752;BME280;69234;47.446;21.636;2023-07-28T00:35:05;100307.66;;;14.40;79.50
79752;BME280;69234;47.446;21.636;2023-07-28T00:35:37;100292.94;;;14.35;78.03
79752;BME280;69234;47.446;21.636;2023-07-28T00:36:08;100293.78;;;14.35;78.21
79752;BME280;69234;47.446;21.636;2023-07-28T00:36:39;100297.16;;;14.37;78.00
79752;BME280;69234;47.446;21.636;2023-07-28T00:37:12;100299.19;;;14.35;79.33
79752;BME280;69234;47.446;21.636;2023-07-28T00:37:43;100297.63;;;14.33;79.04
79752;BME280;69234;47.446;21.636;2023-07-28T00:38:13;100303.22;;;14.31;80.06
79752;BME280;69234;47.446;21.636;2023-07-28T00:38:44;100295.56;;;14.26;79.78
79752;BME280;69234;47.446;21.636;2023-07-28T00:39:15;100301.34;;;14.32;79.70
79752;BME280;69234;47.446;21.636;2023-07-28T00:39:46;100299.97;;;14.27;79.35
79752;BME280;69234;47.446;21.636;2023-07-28T00:40:17;100301.84;;;14.27;79.71
79752;BME280;69234;47.446;21.636;2023-07-28T00:40:48;100302.81;;;14.26;80.60
79752;BME280;69234;47.446;21.636;2023-07-28T00:41:19;100296.75;;;14.24;80.42
79752;BME280;69234;47.446;21.636;2023-07-28T00:41:50;100296.34;;;14.19;81.32
79752;BME280;69234;47.446;21.636;2023-07-28T00:42:21;100301.63;;;14.20;80.69
79752;BME280;69234;47.446;21.636;2023-07-28T00:42:52;100298.19;;;14.18;81.19
79752;BME280;69234;47.446;21.636;2023-07-28T00:43:23;100299.03;;;14.19;80.64
79752;BME280;69234;47.446;21.636;2023-07-28T00:43:53;100285.78;;;14.08;80.73
79752;BME280;69234;47.446;21.636;2023-07-28T00:44:24;100300.13;;;14.08;81.64
79752;BME280;69234;47.446;21.636;2023-07-28T00:44:55;100304.84;;;14.06;82.06
79752;BME280;69234;47.446;21.636;2023-07-28T00:45:27;100304.16;;;14.04;81.67
79752;BME280;69234;47.446;21.636;2023-07-28T00:45:58;100304.84;;;14.06;80.98
79752;BME280;69234;47.446;21.636;2023-07-28T00:46:30;100303.44;;;14.02;81.60
79752;BME280;69234;47.446;21.636;2023-07-28T00:47:01;100306.56;;;14.07;81.64
79752;BME280;69234;47.446;21.636;2023-07-28T00:47:33;100303.00;;;14.07;81.37
79752;BME280;69234;47.446;21.636;2023-07-28T00:48:12;100306.56;;;14.07;81.57
79752;BME280;69234;47.446;21.636;2023-07-28T00:48:44;100301.78;;;14.01;82.34
79752;BME280;69234;47.446;21.636;2023-07-28T00:49:15;100306.63;;;13.97;81.99
79752;BME280;69234;47.446;21.636;2023-07-28T00:49:47;100298.84;;;13.94;82.51
79752;BME280;69234;47.446;21.636;2023-07-28T00:50:18;100302.25;;;13.96;82.53
79752;BME280;69234;47.446;21.636;2023-07-28T00:50:49;100297.44;;;13.90;82.15
79752;BME280;69234;47.446;21.636;2023-07-28T00:51:23;100302.00;;;13.90;83.07
79752;BME280;69234;47.446;21.636;2023-07-28T00:51:54;100305.56;;;13.90;83.05
79752;BME280;69234;47.446;21.636;2023-07-28T00:52:25;100300.44;;;13.87;82.49
79752;BME280;69234;47.446;21.636;2023-07-28T00:52:56;100302.31;;;13.87;82.57
79752;BME280;69234;47.446;21.636;2023-07-28T00:53:29;100306.16;;;13.84;83.22
79752;BME280;69234;47.446;21.636;2023-07-28T00:54:01;100301.91;;;13.82;83.61
79752;BME280;69234;47.446;21.636;2023-07-28T00:54:33;100300.53;;;13.77;83.53
79752;BME280;69234;47.446;21.636;2023-07-28T00:55:06;100302.78;;;13.82;83.47
79752;BME280;69234;47.446;21.636;2023-07-28T00:55:38;100303.75;;;13.81;82.90
79752;BME280;69234;47.446;21.636;2023-07-28T00:56:11;100305.06;;;13.77;83.46
79752;BME280;69234;47.446;21.636;2023-07-28T00:56:42;100310.19;;;13.80;82.97
79752;BME280;69234;47.446;21.636;2023-07-28T00:57:13;100305.78;;;13.79;82.62
79752;BME280;69234;47.446;21.636;2023-07-28T00:57:44;100299.69;;;13.77;82.23
79752;BME280;69234;47.446;21.636;2023-07-28T00:58:15;100303.75;;;13.81;82.07
79752;BME280;69234;47.446;21.636;2023-07-28T00:58:46;100304.78;;;13.80;81.07
79752;BME280;69234;47.446;21.636;2023-07-28T00:59:17;100308.19;;;13.82;81.61
79752;BME280;69234;47.446;21.636;2023-07-28T00:59:48;100307.00;;;13.85;81.21
79752;BME280;69234;47.446;21.636;2023-07-28T01:00:19;100315.28;;;13.83;81.43
79752;BME280;69234;47.446;21.636;2023-07-28T01:00:50;100307.16;;;13.83;81.36
79752;BME280;69234;47.446;21.636;2023-07-28T01:01:21;100308.00;;;13.84;81.44
79752;BME280;69234;47.446;21.636;2023-07-28T01:01:53;100304.22;;;13.76;81.41
79752;BME280;69234;47.446;21.636;2023-07-28T01:02:24;100307.59;;;13.78;81.18
79752;BME280;69234;47.446;21.636;2023-07-28T01:02:56;100309.63;;;13.76;81.91
79752;BME280;69234;47.446;21.636;2023-07-28T01:03:28;100307.59;;;13.78;81.50
79752;BME280;69234;47.446;21.636;2023-07-28T01:04:00;100302.06;;;13.80;81.80
79752;BME280;69234;47.446;21.636;2023-07-28T01:04:31;100308.31;;;13.80;82.36
79752;BME280;69234;47.446;21.636;2023-07-28T01:05:03;100301.06;;;13.81;81.22
79752;BME280;69234;47.446;21.636;2023-07-28T01:06:13;100299.91;;;13.84;81.12
79752;BME280;69234;47.446;21.636;2023-07-28T01:07:04;100299.06;;;13.83;81.89
79752;BME280;69234;47.446;21.636;2023-07-28T01:07:53;100300.22;;;13.80;81.67
79752;BME280;69234;47.446;21.636;2023-07-28T01:08:53;100296.50;;;13.82;81.59
79752;BME280;69234;47.446;21.636;2023-07-28T01:09:42;100295.00;;;13.79;81.07
79752;BME280;69234;47.446;21.636;2023-07-28T01:10:31;100301.78;;;13.83;81.65
79752;BME280;69234;47.446;21.636;2023-07-28T01:11:03;100305.47;;;13.82;81.13
79752;BME280;69234;47.446;21.636;2023-07-28T01:11:34;100293.56;;;13.75;81.50
79752;BME280;69234;47.446;21.636;2023-07-28T01:12:08;100297.44;;;13.72;81.04
79752;BME280;69234;47.446;21.636;2023-07-28T01:12:42;100290.03;;;13.74;81.51
79752;BME280;69234;47.446;21.636;2023-07-28T01:13:13;100290.03;;;13.74;82.17
79752;BME280;69234;47.446;21.636;2023-07-28T01:13:45;100287.63;;;13.71;81.30
79752;BME280;69234;47.446;21.636;2023-07-28T01:14:16;100290.88;;;13.75;81.43
79752;BME280;69234;47.446;21.636;2023-07-28T01:14:47;100291.88;;;13.74;81.28
79752;BME280;69234;47.446;21.636;2023-07-28T01:15:18;100290.19;;;13.73;82.26
79752;BME280;69234;47.446;21.636;2023-07-28T01:15:49;100292.91;;;13.73;81.36
79752;BME280;69234;47.446;21.636;2023-07-28T01:16:20;100293.19;;;13.70;83.02
79752;BME280;69234;47.446;21.636;2023-07-28T01:16:51;100292.66;;;13.66;81.10
79752;BME280;69234;47.446;21.636;2023-07-28T01:17:22;100295.19;;;13.68;82.20
79752;BME280;69234;47.446;21.636;2023-07-28T01:17:54;100289.25;;;13.64;81.31
79752;BME280;69234;47.446;21.636;2023-07-28T01:18:26;100292.13;;;13.63;81.49
79752;BME280;69234;47.446;21.636;2023-07-28T01:18:57;100289.41;;;13.63;81.93
79752;BME280;69234;47.446;21.636;2023-07-28T01:19:28;100292.13;;;13.63;82.57
79752;BME280;69234;47.446;21.636;2023-07-28T01:19:59;100291.81;;;13.66;82.11
79752;BME280;69234;47.446;21.636;2023-07-28T01:20:33;100288.25;;;13.65;82.14
79752;BME280;69234;47.446;21.636;2023-07-28T01:21:10;100286.16;;;13.59;82.73
79752;BME280;69234;47.446;21.636;2023-07-28T01:21:52;100281.91;;;13.56;82.53
79752;BME280;69234;47.446;21.636;2023-07-28T01:25:00;100287.47;;;13.55;82.88
79752;BME280;69234;47.446;21.636;2023-07-28T01:25:48;100285.63;;;13.55;82.40
79752;BME280;69234;47.446;21.636;2023-07-28T01:26:35;100287.31;;;13.56;83.12
79752;BME280;69234;47.446;21.636;2023-07-28T01:27:07;100286.63;;;13.54;82.95
79752;BME280;69234;47.446;21.636;2023-07-28T01:27:39;100287.31;;;13.56;83.10
79752;BME280;69234;47.446;21.636;2023-07-28T01:28:13;100286.31;;;13.57;82.74
79752;BME280;69234;47.446;21.636;2023-07-28T01:28:47;100281.91;;;13.56;82.34
79752;BME280;69234;47.446;21.636;2023-07-28T01:29:19;100282.75;;;13.57;82.76
79752;BME280;69234;47.446;21.636;2023-07-28T01:29:51;100281.63;;;13.60;81.93
79752;BME280;69234;47.446;21.636;2023-07-28T01:30:23;100288.69;;;13.61;81.78
79752;BME280;69234;47.446;21.636;2023-07-28T01:30:57;100288.69;;;13.61;82.98
79752;BME280;69234;47.446;21.636;2023-07-28T01:31:30;100284.16;;;13.61;81.52
79752;BME280;69234;47.446;21.636;2023-07-28T01:32:00;100277.78;;;13.62;81.84
79752;BME280;69234;47.446;21.636;2023-07-28T01:32:31;100282.47;;;13.60;82.12
79752;BME280;69234;47.446;21.636;2023-07-28T01:33:07;100280.78;;;13.59;82.33
79752;BME280;69234;47.446;21.636;2023-07-28T01:33:38;100280.91;;;13.57;82.65
79752;BME280;69234;47.446;21.636;2023-07-28T01:34:09;100286.16;;;13.59;82.90
79752;BME280;69234;47.446;21.636;2023-07-28T01:34:40;100284.47;;;13.58;82.67
79752;BME280;69234;47.446;21.636;2023-07-28T01:35:11;100292.72;;;13.56;81.90
79752;BME280;69234;47.446;21.636;2023-07-28T01:35:42;100285.63;;;13.55;82.01
79752;BME280;69234;47.446;21.636;2023-07-28T01:36:13;100281.25;;;13.54;83.19
79752;BME280;69234;47.446;21.636;2023-07-28T01:36:44;100285.94;;;13.52;82.21
79752;BME280;69234;47.446;21.636;2023-07-28T01:37:15;100286.94;;;13.51;83.00
79752;BME280;69234;47.446;21.636;2023-07-28T01:37:46;100281.53;;;13.51;82.52
79752;BME280;69234;47.446;21.636;2023-07-28T01:38:21;100287.91;;;13.50;82.91
79752;BME280;69234;47.446;21.636;2023-07-28T01:38:52;100281.53;;;13.51;82.62
79752;BME280;69234;47.446;21.636;2023-07-28T01:39:24;100284.69;;;13.47;83.41
79752;BME280;69234;47.446;21.636;2023-07-28T01:39:56;100286.53;;;13.46;82.66
79752;BME280;69234;47.446;21.636;2023-07-28T01:40:28;100279.44;;;13.45;82.30
79752;BME280;69234;47.446;21.636;2023-07-28T01:40:59;100285.84;;;13.44;83.61
79752;BME280;69234;47.446;21.636;2023-07-28T01:41:29;100282.75;;;13.39;82.88
79752;BME280;69234;47.446;21.636;2023-07-28T01:42:00;100287.13;;;13.40;83.22
79752;BME280;69234;47.446;21.636;2023-07-28T01:42:31;100293.53;;;13.39;82.73
79752;BME280;69234;47.446;21.636;2023-07-28T01:43:02;100293.84;;;13.36;82.96
79752;BME280;69234;47.446;21.636;2023-07-28T01:43:33;100291.97;;;13.37;82.89
79752;BME280;69234;47.446;21.636;2023-07-28T01:44:04;100284.06;;;13.35;83.97
79752;BME280;69234;47.446;21.636;2023-07-28T01:44:35;100294.13;;;13.33;83.61
79752;BME280;69234;47.446;21.636;2023-07-28T01:45:06;100286.91;;;13.34;84.13
79752;BME280;69234;47.446;21.636;2023-07-28T01:45:38;100283.50;;;13.31;83.14
79752;BME280;69234;47.446;21.636;2023-07-28T01:46:09;100291.44;;;13.33;83.70
79752;BME280;69234;47.446;21.636;2023-07-28T01:46:40;100280.09;;;13.29;83.90
79752;BME280;69234;47.446;21.636;2023-07-28T01:47:11;100281.81;;;13.30;83.66
79752;BME280;69234;47.446;21.636;2023-07-28T01:47:42;100274.16;;;13.26;83.51
79752;BME280;69234;47.446;21.636;2023-07-28T01:48:12;100277.56;;;13.28;84.08
79752;BME280;69234;47.446;21.636;2023-07-28T01:48:43;100278.56;;;13.27;84.29
79752;BME280;69234;47.446;21.636;2023-07-28T01:49:14;100279.13;;;13.21;84.11
79752;BME280;69234;47.446;21.636;2023-07-28T01:49:45;100280.81;;;13.22;84.60
79752;BME280;69234;47.446;21.636;2023-07-28T01:50:16;100278.88;;;13.24;84.51
79752;BME280;69234;47.446;21.636;2023-07-28T01:50:47;100273.47;;;13.24;84.66
79752;BME280;69234;47.446;21.636;2023-07-28T01:51:18;100278.88;;;13.24;84.28
79752;BME280;69234;47.446;21.636;2023-07-28T01:51:49;100277.00;;;13.24;83.74
79752;BME280;69234;47.446;21.636;2023-07-28T01:52:20;100273.47;;;13.24;84.25
79752;BME280;69234;47.446;21.636;2023-07-28T01:52:52;100272.06;;;13.20;84.59
79752;BME280;69234;47.446;21.636;2023-07-28T01:53:23;100274.34;;;13.15;84.79
79752;BME280;69234;47.446;21.636;2023-07-28T01:53:54;100267.94;;;13.16;84.17
79752;BME280;69234;47.446;21.636;2023-07-28T01:54:24;100269.94;;;13.14;84.97
79752;BME280;69234;47.446;21.636;2023-07-28T01:54:57;100274.25;;;13.06;84.64
79752;BME280;69234;47.446;21.636;2023-07-28T01:55:28;100279.63;;;13.06;85.93
79752;BME280;69234;47.446;21.636;2023-07-28T01:55:59;100271.69;;;13.05;85.30
79752;BME280;69234;47.446;21.636;2023-07-28T01:56:31;100274.09;;;13.08;84.97
79752;BME280;69234;47.446;21.636;2023-07-28T01:57:03;100282.03;;;13.09;85.33
79752;BME280;69234;47.446;21.636;2023-07-28T01:57:38;100274.25;;;13.06;84.43
79752;BME280;69234;47.446;21.636;2023-07-28T01:58:09;100278.47;;;13.09;85.28
79752;BME280;69234;47.446;21.636;2023-07-28T01:58:40;100277.50;;;13.10;84.51
79752;BME280;69234;47.446;21.636;2023-07-28T01:59:11;100276.22;;;13.04;84.95
79752;BME280;69234;47.446;21.636;2023-07-28T01:59:42;100276.09;;;13.06;84.93
79752;BME280;69234;47.446;21.636;2023-07-28T02:00:13;100277.91;;;13.05;84.87
79752;BME280;69234;47.446;21.636;2023-07-28T02:00:44;100285.16;;;13.05;85.23
79752;BME280;69234;47.446;21.636;2023-07-28T02:01:16;100283.63;;;13.02;85.07
79752;BME280;69234;47.446;21.636;2023-07-28T02:01:47;100273.56;;;12.95;85.16
79752;BME280;69234;47.446;21.636;2023-07-28T02:02:18;100281.06;;;13.01;84.77
79752;BME280;69234;47.446;21.636;2023-07-28T02:02:50;100286.47;;;13.01;84.78
79752;BME280;69234;47.446;21.636;2023-07-28T02:03:21;100276.97;;;12.97;84.97
79752;BME280;69234;47.446;21.636;2023-07-28T02:03:53;100284.59;;;13.01;84.52
79752;BME280;69234;47.446;21.636;2023-07-28T02:04:24;100292.69;;;13.01;84.97
79752;BME280;69234;47.446;21.636;2023-07-28T02:04:55;100282.22;;;12.98;84.88
79752;BME280;69234;47.446;21.636;2023-07-28T02:05:26;100281.38;;;12.98;85.46
79752;BME280;69234;47.446;21.636;2023-07-28T02:05:57;100275.41;;;12.94;84.94
79752;BME280;69234;47.446;21.636;2023-07-28T02:06:29;100281.53;;;12.96;84.47
79752;BME280;69234;47.446;21.636;2023-07-28T02:07:01;100283.38;;;12.96;84.73
79752;BME280;69234;47.446;21.636;2023-07-28T02:07:32;100284.78;;;13.00;85.22
79752;BME280;69234;47.446;21.636;2023-07-28T02:08:03;100289.03;;;13.02;84.53
79752;BME280;69234;47.446;21.636;2023-07-28T02:08:34;100290.16;;;13.00;85.70
79752;BME280;69234;47.446;21.636;2023-07-28T02:09:05;100270.31;;;12.91;85.26
79752;BME280;69234;47.446;21.636;2023-07-28T02:09:36;100289.63;;;12.96;85.29
79752;BME280;69234;47.446;21.636;2023-07-28T02:10:07;100285.34;;;12.94;84.90
79752;BME280;69234;47.446;21.636;2023-07-28T02:10:38;100280.25;;;12.91;85.53
79752;BME280;69234;47.446;21.636;2023-07-28T02:11:09;100289.91;;;12.93;86.07
79752;BME280;69234;47.446;21.636;2023-07-28T02:11:40;100290.59;;;12.95;85.50
79752;BME280;69234;47.446;21.636;2023-07-28T02:12:11;100290.75;;;12.94;86.08
79752;BME280;69234;47.446;21.636;2023-07-28T02:12:42;100292.16;;;12.98;84.85
79752;BME280;69234;47.446;21.636;2023-07-28T02:13:14;100294.16;;;12.96;84.65
79752;BME280;69234;47.446;21.636;2023-07-28T02:13:45;100289.63;;;12.96;84.59
79752;BME280;69234;47.446;21.636;2023-07-28T02:14:21;100287.88;;;12.95;85.36
79752;BME280;69234;47.446;21.636;2023-07-28T02:14:52;100292.44;;;12.95;85.87
79752;BME280;69234;47.446;21.636;2023-07-28T02:15:23;100291.88;;;12.91;85.61
79752;BME280;69234;47.446;21.636;2023-07-28T02:15:54;100289.75;;;12.95;85.35
79752;BME280;69234;47.446;21.636;2023-07-28T02:16:24;100293.59;;;12.92;85.14
79752;BME280;69234;47.446;21.636;2023-07-28T02:16:59;100287.66;;;12.89;85.12
79752;BME280;69234;47.446;21.636;2023-07-28T02:17:30;100291.88;;;12.91;85.03
79752;BME280;69234;47.446;21.636;2023-07-28T02:18:01;100289.47;;;12.88;85.17
79752;BME280;69234;47.446;21.636;2023-07-28T02:18:32;100293.59;;;12.92;85.42
79752;BME280;69234;47.446;21.636;2023-07-28T02:19:03;100292.91;;;12.90;85.26
79752;BME280;69234;47.446;21.636;2023-07-28T02:19:34;100293.59;;;12.92;85.41
79752;BME280;69234;47.446;21.636;2023-07-28T02:20:05;100295.59;;;12.90;85.35
79752;BME280;69234;47.446;21.636;2023-07-28T02:20:36;100297.28;;;12.91;86.08
79752;BME280;69234;47.446;21.636;2023-07-28T02:21:09;100292.91;;;12.90;84.99
79752;BME280;69234;47.446;21.636;2023-07-28T02:21:40;100295.97;;;12.95;85.54
79752;BME280;69234;47.446;21.636;2023-07-28T02:22:11;100300.25;;;12.98;85.41
79752;BME280;69234;47.446;21.636;2023-07-28T02:22:42;100297.00;;;12.94;85.48
79752;BME280;69234;47.446;21.636;2023-07-28T02:23:14;100302.94;;;12.98;85.14
79752;BME280;69234;47.446;21.636;2023-07-28T02:23:45;100291.59;;;12.94;86.29
79752;BME280;69234;47.446;21.636;2023-07-28T02:24:16;100292.44;;;12.95;85.78
79752;BME280;69234;47.446;21.636;2023-07-28T02:24:47;100293.00;;;12.98;85.36
79752;BME280;69234;47.446;21.636;2023-07-28T02:25:18;100289.91;;;12.93;85.67
79752;BME280;69234;47.446;21.636;2023-07-28T02:25:49;100294.16;;;12.96;85.67
79752;BME280;69234;47.446;21.636;2023-07-28T02:26:19;100293.59;;;12.92;86.50
79752;BME280;69234;47.446;21.636;2023-07-28T02:26:50;100295.13;;;12.95;86.34
79752;BME280;69234;47.446;21.636;2023-07-28T02:27:21;100287.06;;;12.95;85.81
79752;BME280;69234;47.446;21.636;2023-07-28T02:27:52;100295.00;;;12.96;86.88
79752;BME280;69234;47.446;21.636;2023-07-28T02:28:23;100286.19;;;12.94;87.15
79752;BME280;69234;47.446;21.636;2023-07-28T02:28:54;100289.88;;;13.03;85.79
79752;BME280;69234;47.446;21.636;2023-07-28T02:29:25;100300.66;;;13.03;86.72
79752;BME280;69234;47.446;21.636;2023-07-28T02:29:56;100292.88;;;13.00;85.64
79752;BME280;69234;47.446;21.636;2023-07-28T02:30:27;100293.53;;;13.02;85.90
79752;BME280;69234;47.446;21.636;2023-07-28T02:30:58;100295.25;;;13.03;85.61
79752;BME280;69234;47.446;21.636;2023-07-28T02:31:29;100292.41;;;13.04;86.31
79752;BME280;69234;47.446;21.636;2023-07-28T02:32:00;100292.41;;;13.04;86.22
79752;BME280;69234;47.446;21.636;2023-07-28T02:32:31;100292.09;;;13.07;85.83
79752;BME280;69234;47.446;21.636;2023-07-28T02:33:03;100297.50;;;13.07;86.53
79752;BME280;69234;47.446;21.636;2023-07-28T02:33:34;100299.34;;;13.07;85.62
79752;BME280;69234;47.446;21.636;2023-07-28T02:34:07;100290.97;;;13.10;85.74
79752;BME280;69234;47.446;21.636;2023-07-28T02:34:38;100288.56;;;13.07;86.38
79752;BME280;69234;47.446;21.636;2023-07-28T02:35:09;100295.81;;;13.06;85.43
79752;BME280;69234;47.446;21.636;2023-07-28T02:35:41;100292.66;;;13.11;85.57
79752;BME280;69234;47.446;21.636;2023-07-28T02:36:12;100296.63;;;13.17;85.74
79752;BME280;69234;47.446;21.636;2023-07-28T02:36:43;100289.81;;;13.13;85.94
79752;BME280;69234;47.446;21.636;2023-07-28T02:37:15;100289.66;;;13.14;85.92
79752;BME280;69234;47.446;21.636;2023-07-28T02:37:46;100289.50;;;13.16;85.90
79752;BME280;69234;47.446;21.636;2023-07-28T02:38:17;100295.44;;;13.19;86.14
79752;BME280;69234;47.446;21.636;2023-07-28T02:38:48;100287.53;;;13.18;84.96
79752;BME280;69234;47.446;21.636;2023-07-28T02:39:19;100298.31;;;13.18;85.64
79752;BME280;69234;47.446;21.636;2023-07-28T02:39:51;100301.72;;;13.20;86.13
79752;BME280;69234;47.446;21.636;2023-07-28T02:40:22;100302.69;;;13.19;85.78
79752;BME280;69234;47.446;21.636;2023-07-28T02:40:53;100288.66;;;13.15;85.30
79752;BME280;69234;47.446;21.636;2023-07-28T02:41:24;100298.00;;;13.21;85.54
79752;BME280;69234;47.446;21.636;2023-07-28T02:41:55;100294.59;;;13.19;86.58
79752;BME280;69234;47.446;21.636;2023-07-28T02:42:26;100291.59;;;13.22;86.14
79752;BME280;69234;47.446;21.636;2023-07-28T02:42:58;100292.91;;;13.18;86.40
79752;BME280;69234;47.446;21.636;2023-07-28T02:43:29;100293.91;;;13.17;86.63
79752;BME280;69234;47.446;21.636;2023-07-28T02:44:00;100288.38;;;13.18;86.25
79752;BME280;69234;47.446;21.636;2023-07-28T02:44:31;100294.91;;;13.16;86.35
79752;BME280;69234;47.446;21.636;2023-07-28T02:45:03;100296.75;;;13.15;86.28
79752;BME280;69234;47.446;21.636;2023-07-28T02:45:34;100294.91;;;13.16;86.50
79752;BME280;69234;47.446;21.636;2023-07-28T02:46:04;100291.53;;;13.14;86.22
79752;BME280;69234;47.446;21.636;2023-07-28T02:46:35;100291.22;;;13.17;86.15
79752;BME280;69234;47.446;21.636;2023-07-28T02:47:07;100293.75;;;13.18;86.44
79752;BME280;69234;47.446;21.636;2023-07-28T02:47:39;100296.88;;;13.23;85.13